sensor_id;sensor_type;location;lat;lon;timestamp;P1;durP1;ratioP1;P2;durP2;ratioP2
27889;SDS011;15238;49.082;9.102;2022-08-14T00:00:50;2.10;;;1.90;;
27889;SDS011;15238;49.082;9.102;2022-08-14T00:02:51;3.50;;;1.83;;
27889;SDS011;15238;49.082;9.102;2022-08-14T00:04:51;2.83;;;1.63;;
27889;SDS011;15238;49.082;9.102;2022-08-14T00:06:52;1.80;;;1.70;;
27889;SDS011;15238;49.082;9.102;2022-08-14T00:08:52;2.17;;;1.92;;
27889;SDS011;15238;49.082;9.102;2022-08-14T00:10:54;6.10;;;2.13;;
27889;SDS011;15238;49.082;9.102;2022-08-14T00:12:55;5.75;;;1.80;;
27889;SDS011;15238;49.082;9.102;2022-08-14T00:14:55;2.60;;;2.38;;
27889;SDS011;15238;49.082;9.102;2022-08-14T00:16:56;6.28;;;2.22;;
27889;SDS011;15238;49.082;9.102;2022-08-14T00:18:57;3.15;;;2.17;;
27889;SDS011;15238;49.082;9.102;2022-08-14T00:20:59;2.85;;;2.17;;
27889;SDS011;15238;49.082;9.102;2022-08-14T00:23:00;4.47;;;2.10;;
27889;SDS011;15238;49.082;9.102;2022-08-14T00:25:00;8.63;;;2.35;;
27889;SDS011;15238;49.082;9.102;2022-08-14T00:27:01;4.85;;;2.38;;
27889;SDS011;15238;49.082;9.102;2022-08-14T00:29:01;7.65;;;2.63;;
27889;SDS011;15238;49.082;9.102;2022-08-14T00:31:03;2.80;;;2.38;;
27889;SDS011;15238;49.082;9.102;2022-08-14T00:33:05;3.50;;;2.20;;
27889;SDS011;15238;49.082;9.102;2022-08-14T00:35:07;7.28;;;2.15;;
27889;SDS011;15238;49.082;9.102;2022-08-14T00:37:08;6.55;;;2.22;;
27889;SDS011;15238;49.082;9.102;2022-08-14T00:39:15;3.28;;;2.42;;
27889;SDS011;15238;49.082;9.102;2022-08-14T00:41:15;6.28;;;2.78;;
27889;SDS011;15238;49.082;9.102;2022-08-14T00:43:16;3.58;;;2.58;;
27889;SDS011;15238;49.082;9.102;2022-08-14T00:45:17;7.00;;;2.50;;
27889;SDS011;15238;49.082;9.102;2022-08-14T00:47:18;6.45;;;2.50;;
27889;SDS011;15238;49.082;9.102;2022-08-14T00:49:19;4.35;;;2.50;;
27889;SDS011;15238;49.082;9.102;2022-08-14T00:51:20;2.38;;;2.03;;
27889;SDS011;15238;49.082;9.102;2022-08-14T00:53:20;3.25;;;2.33;;
27889;SDS011;15238;49.082;9.102;2022-08-14T00:55:22;3.25;;;2.75;;
27889;SDS011;15238;49.082;9.102;2022-08-14T00:57:24;2.17;;;1.98;;
27889;SDS011;15238;49.082;9.102;2022-08-14T00:59:26;5.32;;;2.63;;
27889;SDS011;15238;49.082;9.102;2022-08-14T01:01:27;3.72;;;2.40;;
27889;SDS011;15238;49.082;9.102;2022-08-14T01:03:28;5.03;;;2.17;;
27889;SDS011;15238;49.082;9.102;2022-08-14T01:05:29;2.25;;;2.00;;
27889;SDS011;15238;49.082;9.102;2022-08-14T01:07:30;2.63;;;2.10;;
27889;SDS011;15238;49.082;9.102;2022-08-14T01:09:30;4.15;;;2.50;;
27889;SDS011;15238;49.082;9.102;2022-08-14T01:11:32;4.00;;;2.42;;
27889;SDS011;15238;49.082;9.102;2022-08-14T01:13:36;3.88;;;2.03;;
27889;SDS011;15238;49.082;9.102;2022-08-14T01:15:38;2.80;;;2.20;;
27889;SDS011;15238;49.082;9.102;2022-08-14T01:17:39;5.22;;;2.38;;
27889;SDS011;15238;49.082;9.102;2022-08-14T01:19:58;3.72;;;2.20;;
27889;SDS011;15238;49.082;9.102;2022-08-14T01:22:18;3.30;;;2.00;;
27889;SDS011;15238;49.082;9.102;2022-08-14T01:24:20;4.13;;;2.15;;
27889;SDS011;15238;49.082;9.102;2022-08-14T01:26:22;5.13;;;1.95;;
27889;SDS011;15238;49.082;9.102;2022-08-14T01:28:23;3.72;;;2.03;;
27889;SDS011;15238;49.082;9.102;2022-08-14T01:30:27;2.30;;;2.10;;
27889;SDS011;15238;49.082;9.102;2022-08-14T01:32:31;5.25;;;2.40;;
27889;SDS011;15238;49.082;9.102;2022-08-14T01:34:32;7.00;;;2.42;;
27889;SDS011;15238;49.082;9.102;2022-08-14T01:36:33;3.42;;;2.60;;
27889;SDS011;15238;49.082;9.102;2022-08-14T01:38:38;6.93;;;2.60;;
27889;SDS011;15238;49.082;9.102;2022-08-14T01:40:41;4.22;;;1.95;;
27889;SDS011;15238;49.082;9.102;2022-08-14T01:42:42;3.17;;;2.30;;
27889;SDS011;15238;49.082;9.102;2022-08-14T01:44:42;6.57;;;2.20;;
27889;SDS011;15238;49.082;9.102;2022-08-14T01:46:43;3.22;;;2.17;;
27889;SDS011;15238;49.082;9.102;2022-08-14T01:48:45;4.60;;;2.25;;
27889;SDS011;15238;49.082;9.102;2022-08-14T01:50:47;5.18;;;2.10;;
27889;SDS011;15238;49.082;9.102;2022-08-14T01:52:48;3.72;;;2.20;;
27889;SDS011;15238;49.082;9.102;2022-08-14T01:54:49;3.05;;;2.33;;
27889;SDS011;15238;49.082;9.102;2022-08-14T01:56:51;3.97;;;2.28;;
27889;SDS011;15238;49.082;9.102;2022-08-14T01:58:54;5.03;;;2.58;;
27889;SDS011;15238;49.082;9.102;2022-08-14T02:00:55;5.63;;;2.20;;
27889;SDS011;15238;49.082;9.102;2022-08-14T02:02:57;5.72;;;2.47;;
27889;SDS011;15238;49.082;9.102;2022-08-14T02:04:58;3.78;;;2.42;;
27889;SDS011;15238;49.082;9.102;2022-08-14T02:07:00;3.88;;;2.38;;
27889;SDS011;15238;49.082;9.102;2022-08-14T02:09:05;2.80;;;2.40;;
27889;SDS011;15238;49.082;9.102;2022-08-14T02:11:07;4.30;;;2.67;;
27889;SDS011;15238;49.082;9.102;2022-08-14T02:13:21;5.80;;;2.28;;
27889;SDS011;15238;49.082;9.102;2022-08-14T02:15:22;2.30;;;2.05;;
27889;SDS011;15238;49.082;9.102;2022-08-14T02:17:23;2.75;;;1.98;;
27889;SDS011;15238;49.082;9.102;2022-08-14T02:19:25;4.20;;;2.38;;
27889;SDS011;15238;49.082;9.102;2022-08-14T02:21:28;3.70;;;2.00;;
27889;SDS011;15238;49.082;9.102;2022-08-14T02:23:31;3.25;;;2.30;;
27889;SDS011;15238;49.082;9.102;2022-08-14T02:25:32;5.25;;;2.67;;
27889;SDS011;15238;49.082;9.102;2022-08-14T02:27:33;4.47;;;2.28;;
27889;SDS011;15238;49.082;9.102;2022-08-14T02:29:36;3.65;;;2.20;;
27889;SDS011;15238;49.082;9.102;2022-08-14T02:31:37;3.67;;;2.38;;
27889;SDS011;15238;49.082;9.102;2022-08-14T02:33:40;2.83;;;2.08;;
27889;SDS011;15238;49.082;9.102;2022-08-14T02:35:41;3.92;;;2.55;;
27889;SDS011;15238;49.082;9.102;2022-08-14T02:37:42;3.72;;;2.42;;
27889;SDS011;15238;49.082;9.102;2022-08-14T02:39:44;3.75;;;2.20;;
27889;SDS011;15238;49.082;9.102;2022-08-14T02:41:45;3.90;;;2.30;;
27889;SDS011;15238;49.082;9.102;2022-08-14T02:43:50;3.88;;;2.38;;
27889;SDS011;15238;49.082;9.102;2022-08-14T02:45:50;5.95;;;2.55;;
27889;SDS011;15238;49.082;9.102;2022-08-14T02:47:51;6.50;;;2.47;;
27889;SDS011;15238;49.082;9.102;2022-08-14T02:49:51;8.65;;;2.67;;
27889;SDS011;15238;49.082;9.102;2022-08-14T02:51:53;6.20;;;2.75;;
27889;SDS011;15238;49.082;9.102;2022-08-14T02:53:55;6.13;;;2.40;;
27889;SDS011;15238;49.082;9.102;2022-08-14T02:55:57;2.55;;;2.20;;
27889;SDS011;15238;49.082;9.102;2022-08-14T02:57:59;2.75;;;2.03;;
27889;SDS011;15238;49.082;9.102;2022-08-14T03:00:00;4.95;;;2.35;;
27889;SDS011;15238;49.082;9.102;2022-08-14T03:02:02;7.53;;;2.88;;
27889;SDS011;15238;49.082;9.102;2022-08-14T03:04:03;5.90;;;2.30;;
27889;SDS011;15238;49.082;9.102;2022-08-14T03:06:06;5.35;;;2.10;;
27889;SDS011;15238;49.082;9.102;2022-08-14T03:08:08;4.50;;;2.38;;
27889;SDS011;15238;49.082;9.102;2022-08-14T03:10:11;3.50;;;2.58;;
27889;SDS011;15238;49.082;9.102;2022-08-14T03:12:11;3.42;;;2.40;;
27889;SDS011;15238;49.082;9.102;2022-08-14T03:14:12;3.22;;;2.40;;
27889;SDS011;15238;49.082;9.102;2022-08-14T03:16:14;8.68;;;2.65;;
27889;SDS011;15238;49.082;9.102;2022-08-14T03:18:15;5.10;;;2.42;;
27889;SDS011;15238;49.082;9.102;2022-08-14T03:20:16;5.50;;;2.63;;
27889;SDS011;15238;49.082;9.102;2022-08-14T03:22:17;3.53;;;2.38;;
27889;SDS011;15238;49.082;9.102;2022-08-14T03:24:18;2.38;;;2.17;;
27889;SDS011;15238;49.082;9.102;2022-08-14T03:26:21;3.08;;;2.45;;
27889;SDS011;15238;49.082;9.102;2022-08-14T03:28:26;4.18;;;2.85;;
27889;SDS011;15238;49.082;9.102;2022-08-14T03:30:28;3.63;;;2.70;;
27889;SDS011;15238;49.082;9.102;2022-08-14T03:32:30;6.05;;;2.60;;
27889;SDS011;15238;49.082;9.102;2022-08-14T03:34:32;4.88;;;2.70;;
27889;SDS011;15238;49.082;9.102;2022-08-14T03:36:32;3.72;;;2.58;;
27889;SDS011;15238;49.082;9.102;2022-08-14T03:38:33;7.72;;;2.78;;
27889;SDS011;15238;49.082;9.102;2022-08-14T03:40:33;6.60;;;2.42;;
27889;SDS011;15238;49.082;9.102;2022-08-14T03:42:36;3.85;;;2.42;;
27889;SDS011;15238;49.082;9.102;2022-08-14T03:44:38;4.55;;;2.53;;
27889;SDS011;15238;49.082;9.102;2022-08-14T03:46:43;4.82;;;2.13;;
27889;SDS011;15238;49.082;9.102;2022-08-14T03:48:44;4.43;;;2.20;;
27889;SDS011;15238;49.082;9.102;2022-08-14T03:50:45;3.95;;;2.50;;
27889;SDS011;15238;49.082;9.102;2022-08-14T03:52:47;6.03;;;2.38;;
27889;SDS011;15238;49.082;9.102;2022-08-14T03:54:48;6.47;;;2.53;;
27889;SDS011;15238;49.082;9.102;2022-08-14T03:56:48;4.32;;;2.53;;
27889;SDS011;15238;49.082;9.102;2022-08-14T03:58:50;5.40;;;2.70;;
27889;SDS011;15238;49.082;9.102;2022-08-14T04:00:52;4.03;;;2.40;;
27889;SDS011;15238;49.082;9.102;2022-08-14T04:02:53;5.10;;;2.40;;
27889;SDS011;15238;49.082;9.102;2022-08-14T04:04:53;3.78;;;2.28;;
27889;SDS011;15238;49.082;9.102;2022-08-14T04:06:54;2.90;;;2.47;;
27889;SDS011;15238;49.082;9.102;2022-08-14T04:08:55;3.95;;;2.03;;
27889;SDS011;15238;49.082;9.102;2022-08-14T04:10:55;3.15;;;2.28;;
27889;SDS011;15238;49.082;9.102;2022-08-14T04:12:56;3.30;;;2.38;;
27889;SDS011;15238;49.082;9.102;2022-08-14T04:15:00;3.83;;;2.83;;
27889;SDS011;15238;49.082;9.102;2022-08-14T04:17:00;4.70;;;2.92;;
27889;SDS011;15238;49.082;9.102;2022-08-14T04:19:01;4.40;;;2.53;;
27889;SDS011;15238;49.082;9.102;2022-08-14T04:21:03;4.45;;;2.92;;
27889;SDS011;15238;49.082;9.102;2022-08-14T04:23:04;5.10;;;2.60;;
27889;SDS011;15238;49.082;9.102;2022-08-14T04:25:06;4.28;;;2.53;;
27889;SDS011;15238;49.082;9.102;2022-08-14T04:27:10;4.03;;;3.15;;
27889;SDS011;15238;49.082;9.102;2022-08-14T04:29:12;7.18;;;3.58;;
27889;SDS011;15238;49.082;9.102;2022-08-14T04:31:13;4.75;;;3.28;;
27889;SDS011;15238;49.082;9.102;2022-08-14T04:33:15;5.22;;;3.20;;
27889;SDS011;15238;49.082;9.102;2022-08-14T04:35:15;4.97;;;3.13;;
27889;SDS011;15238;49.082;9.102;2022-08-14T04:37:18;4.97;;;3.42;;
27889;SDS011;15238;49.082;9.102;2022-08-14T04:39:41;4.50;;;3.13;;
27889;SDS011;15238;49.082;9.102;2022-08-14T04:42:00;8.68;;;3.97;;
27889;SDS011;15238;49.082;9.102;2022-08-14T04:44:19;4.70;;;3.58;;
27889;SDS011;15238;49.082;9.102;2022-08-14T04:46:21;3.60;;;3.03;;
27889;SDS011;15238;49.082;9.102;2022-08-14T04:48:22;8.02;;;3.63;;
27889;SDS011;15238;49.082;9.102;2022-08-14T04:50:25;4.65;;;4.00;;
27889;SDS011;15238;49.082;9.102;2022-08-14T04:52:26;6.10;;;3.80;;
27889;SDS011;15238;49.082;9.102;2022-08-14T04:54:26;6.63;;;3.88;;
27889;SDS011;15238;49.082;9.102;2022-08-14T04:56:27;7.28;;;3.80;;
27889;SDS011;15238;49.082;9.102;2022-08-14T04:58:29;7.55;;;3.15;;
27889;SDS011;15238;49.082;9.102;2022-08-14T05:00:30;4.05;;;2.83;;
27889;SDS011;15238;49.082;9.102;2022-08-14T05:02:31;8.20;;;2.95;;
27889;SDS011;15238;49.082;9.102;2022-08-14T05:04:33;5.03;;;2.50;;
27889;SDS011;15238;49.082;9.102;2022-08-14T05:06:33;3.42;;;2.88;;
27889;SDS011;15238;49.082;9.102;2022-08-14T05:08:34;6.57;;;3.33;;
27889;SDS011;15238;49.082;9.102;2022-08-14T05:10:36;5.05;;;3.03;;
27889;SDS011;15238;49.082;9.102;2022-08-14T05:12:38;4.30;;;2.83;;
27889;SDS011;15238;49.082;9.102;2022-08-14T05:14:39;4.30;;;3.15;;
27889;SDS011;15238;49.082;9.102;2022-08-14T05:16:40;3.78;;;2.60;;
27889;SDS011;15238;49.082;9.102;2022-08-14T05:18:40;8.40;;;3.08;;
27889;SDS011;15238;49.082;9.102;2022-08-14T05:20:44;6.65;;;2.90;;
27889;SDS011;15238;49.082;9.102;2022-08-14T05:22:47;6.07;;;2.72;;
27889;SDS011;15238;49.082;9.102;2022-08-14T05:24:48;5.68;;;2.90;;
27889;SDS011;15238;49.082;9.102;2022-08-14T05:26:49;6.72;;;2.90;;
27889;SDS011;15238;49.082;9.102;2022-08-14T05:28:49;4.85;;;2.83;;
27889;SDS011;15238;49.082;9.102;2022-08-14T05:30:51;3.95;;;2.55;;
27889;SDS011;15238;49.082;9.102;2022-08-14T05:32:54;6.13;;;3.25;;
27889;SDS011;15238;49.082;9.102;2022-08-14T05:34:56;3.28;;;2.80;;
27889;SDS011;15238;49.082;9.102;2022-08-14T05:37:01;4.18;;;3.20;;
27889;SDS011;15238;49.082;9.102;2022-08-14T05:39:02;8.43;;;3.40;;
27889;SDS011;15238;49.082;9.102;2022-08-14T05:41:11;6.13;;;3.22;;
27889;SDS011;15238;49.082;9.102;2022-08-14T05:45:14;7.32;;;3.58;;
27889;SDS011;15238;49.082;9.102;2022-08-14T05:47:16;5.00;;;3.30;;
27889;SDS011;15238;49.082;9.102;2022-08-14T05:49:16;6.97;;;3.63;;
27889;SDS011;15238;49.082;9.102;2022-08-14T05:51:17;6.97;;;3.55;;
27889;SDS011;15238;49.082;9.102;2022-08-14T05:53:18;4.00;;;3.30;;
27889;SDS011;15238;49.082;9.102;2022-08-14T05:55:19;7.85;;;3.78;;
27889;SDS011;15238;49.082;9.102;2022-08-14T05:57:20;3.75;;;3.25;;
27889;SDS011;15238;49.082;9.102;2022-08-14T05:59:21;4.97;;;3.70;;
27889;SDS011;15238;49.082;9.102;2022-08-14T06:01:22;4.97;;;3.72;;
27889;SDS011;15238;49.082;9.102;2022-08-14T06:03:23;5.13;;;3.60;;
27889;SDS011;15238;49.082;9.102;2022-08-14T06:05:23;4.80;;;3.95;;
27889;SDS011;15238;49.082;9.102;2022-08-14T06:07:24;7.07;;;3.97;;
27889;SDS011;15238;49.082;9.102;2022-08-14T06:09:25;6.38;;;3.80;;
27889;SDS011;15238;49.082;9.102;2022-08-14T06:11:25;4.78;;;4.28;;
27889;SDS011;15238;49.082;9.102;2022-08-14T06:13:26;5.00;;;4.00;;
27889;SDS011;15238;49.082;9.102;2022-08-14T06:15:27;5.88;;;4.35;;
27889;SDS011;15238;49.082;9.102;2022-08-14T06:17:28;3.60;;;3.28;;
27889;SDS011;15238;49.082;9.102;2022-08-14T06:19:28;8.95;;;3.95;;
27889;SDS011;15238;49.082;9.102;2022-08-14T06:21:29;9.70;;;4.78;;
27889;SDS011;15238;49.082;9.102;2022-08-14T06:23:30;5.03;;;3.42;;
27889;SDS011;15238;49.082;9.102;2022-08-14T06:25:31;3.65;;;3.30;;
27889;SDS011;15238;49.082;9.102;2022-08-14T06:27:41;7.22;;;3.72;;
27889;SDS011;15238;49.082;9.102;2022-08-14T06:29:44;4.65;;;3.45;;
27889;SDS011;15238;49.082;9.102;2022-08-14T06:31:45;5.57;;;3.13;;
27889;SDS011;15238;49.082;9.102;2022-08-14T06:33:46;4.43;;;2.95;;
27889;SDS011;15238;49.082;9.102;2022-08-14T06:35:47;3.47;;;2.67;;
27889;SDS011;15238;49.082;9.102;2022-08-14T06:37:52;3.85;;;3.42;;
27889;SDS011;15238;49.082;9.102;2022-08-14T06:39:55;3.60;;;3.28;;
27889;SDS011;15238;49.082;9.102;2022-08-14T06:41:55;3.67;;;2.55;;
27889;SDS011;15238;49.082;9.102;2022-08-14T06:43:56;5.22;;;2.90;;
27889;SDS011;15238;49.082;9.102;2022-08-14T06:45:56;4.03;;;2.80;;
27889;SDS011;15238;49.082;9.102;2022-08-14T06:47:57;6.43;;;2.58;;
27889;SDS011;15238;49.082;9.102;2022-08-14T06:49:58;5.50;;;3.08;;
27889;SDS011;15238;49.082;9.102;2022-08-14T06:51:58;6.43;;;3.38;;
27889;SDS011;15238;49.082;9.102;2022-08-14T06:53:59;4.63;;;3.08;;
27889;SDS011;15238;49.082;9.102;2022-08-14T06:56:00;5.40;;;3.42;;
27889;SDS011;15238;49.082;9.102;2022-08-14T06:58:00;6.32;;;3.70;;
27889;SDS011;15238;49.082;9.102;2022-08-14T07:00:02;9.77;;;3.30;;
27889;SDS011;15238;49.082;9.102;2022-08-14T07:02:07;7.28;;;3.63;;
27889;SDS011;15238;49.082;9.102;2022-08-14T07:04:26;7.03;;;4.38;;
27889;SDS011;15238;49.082;9.102;2022-08-14T07:06:45;4.07;;;3.47;;
27889;SDS011;15238;49.082;9.102;2022-08-14T07:08:46;5.60;;;3.53;;
27889;SDS011;15238;49.082;9.102;2022-08-14T07:10:48;9.55;;;3.92;;
27889;SDS011;15238;49.082;9.102;2022-08-14T07:12:49;5.25;;;3.53;;
27889;SDS011;15238;49.082;9.102;2022-08-14T07:14:50;5.28;;;3.05;;
27889;SDS011;15238;49.082;9.102;2022-08-14T07:16:51;3.90;;;3.47;;
27889;SDS011;15238;49.082;9.102;2022-08-14T07:18:51;5.97;;;3.38;;
27889;SDS011;15238;49.082;9.102;2022-08-14T07:20:52;3.95;;;3.55;;
27889;SDS011;15238;49.082;9.102;2022-08-14T07:22:53;3.85;;;3.50;;
27889;SDS011;15238;49.082;9.102;2022-08-14T07:24:59;4.10;;;3.63;;
27889;SDS011;15238;49.082;9.102;2022-08-14T07:26:59;7.00;;;3.72;;
27889;SDS011;15238;49.082;9.102;2022-08-14T07:29:00;5.95;;;4.10;;
27889;SDS011;15238;49.082;9.102;2022-08-14T07:31:01;7.10;;;3.58;;
27889;SDS011;15238;49.082;9.102;2022-08-14T07:33:04;5.50;;;3.53;;
27889;SDS011;15238;49.082;9.102;2022-08-14T07:35:05;5.30;;;3.60;;
27889;SDS011;15238;49.082;9.102;2022-08-14T07:37:06;5.60;;;3.47;;
27889;SDS011;15238;49.082;9.102;2022-08-14T07:39:07;4.28;;;2.95;;
27889;SDS011;15238;49.082;9.102;2022-08-14T07:41:08;5.75;;;3.65;;
27889;SDS011;15238;49.082;9.102;2022-08-14T07:43:11;4.00;;;3.40;;
27889;SDS011;15238;49.082;9.102;2022-08-14T07:45:12;4.50;;;3.50;;
27889;SDS011;15238;49.082;9.102;2022-08-14T07:47:13;3.67;;;3.38;;
27889;SDS011;15238;49.082;9.102;2022-08-14T07:49:14;3.33;;;3.00;;
27889;SDS011;15238;49.082;9.102;2022-08-14T07:51:15;5.03;;;3.47;;
27889;SDS011;15238;49.082;9.102;2022-08-14T07:53:18;4.35;;;3.47;;
27889;SDS011;15238;49.082;9.102;2022-08-14T07:55:20;5.82;;;3.63;;
27889;SDS011;15238;49.082;9.102;2022-08-14T07:57:21;3.80;;;3.42;;
27889;SDS011;15238;49.082;9.102;2022-08-14T07:59:22;5.65;;;3.53;;
27889;SDS011;15238;49.082;9.102;2022-08-14T08:01:23;5.75;;;3.20;;
27889;SDS011;15238;49.082;9.102;2022-08-14T08:03:25;4.03;;;3.10;;
27889;SDS011;15238;49.082;9.102;2022-08-14T08:05:28;7.40;;;4.00;;
27889;SDS011;15238;49.082;9.102;2022-08-14T08:07:29;5.60;;;4.07;;
27889;SDS011;15238;49.082;9.102;2022-08-14T08:09:30;6.05;;;3.95;;
27889;SDS011;15238;49.082;9.102;2022-08-14T08:11:35;9.45;;;4.03;;
27889;SDS011;15238;49.082;9.102;2022-08-14T08:13:39;4.13;;;3.72;;
27889;SDS011;15238;49.082;9.102;2022-08-14T08:15:42;4.88;;;3.83;;
27889;SDS011;15238;49.082;9.102;2022-08-14T08:17:45;4.30;;;3.90;;
27889;SDS011;15238;49.082;9.102;2022-08-14T08:19:46;5.05;;;3.75;;
27889;SDS011;15238;49.082;9.102;2022-08-14T08:21:47;4.30;;;3.90;;
27889;SDS011;15238;49.082;9.102;2022-08-14T08:23:48;4.25;;;3.75;;
27889;SDS011;15238;49.082;9.102;2022-08-14T08:25:49;4.60;;;4.07;;
27889;SDS011;15238;49.082;9.102;2022-08-14T08:28:11;6.30;;;3.90;;
27889;SDS011;15238;49.082;9.102;2022-08-14T08:30:16;7.13;;;3.70;;
27889;SDS011;15238;49.082;9.102;2022-08-14T08:32:17;5.25;;;4.00;;
27889;SDS011;15238;49.082;9.102;2022-08-14T08:34:18;7.75;;;3.72;;
27889;SDS011;15238;49.082;9.102;2022-08-14T08:36:19;8.75;;;3.47;;
27889;SDS011;15238;49.082;9.102;2022-08-14T08:38:22;4.25;;;3.67;;
27889;SDS011;15238;49.082;9.102;2022-08-14T08:40:25;5.43;;;3.40;;
27889;SDS011;15238;49.082;9.102;2022-08-14T08:42:30;7.75;;;4.15;;
27889;SDS011;15238;49.082;9.102;2022-08-14T08:44:31;5.60;;;3.17;;
27889;SDS011;15238;49.082;9.102;2022-08-14T08:46:32;3.80;;;3.50;;
27889;SDS011;15238;49.082;9.102;2022-08-14T08:48:49;4.05;;;3.10;;
27889;SDS011;15238;49.082;9.102;2022-08-14T08:50:51;3.63;;;3.33;;
27889;SDS011;15238;49.082;9.102;2022-08-14T08:52:52;6.38;;;3.15;;
27889;SDS011;15238;49.082;9.102;2022-08-14T08:54:54;4.15;;;3.63;;
27889;SDS011;15238;49.082;9.102;2022-08-14T08:56:54;3.88;;;3.40;;
27889;SDS011;15238;49.082;9.102;2022-08-14T08:58:56;5.28;;;3.50;;
27889;SDS011;15238;49.082;9.102;2022-08-14T09:00:57;6.82;;;3.45;;
27889;SDS011;15238;49.082;9.102;2022-08-14T09:03:04;4.55;;;3.58;;
27889;SDS011;15238;49.082;9.102;2022-08-14T09:05:07;3.25;;;2.95;;
27889;SDS011;15238;49.082;9.102;2022-08-14T09:07:07;5.93;;;3.67;;
27889;SDS011;15238;49.082;9.102;2022-08-14T09:09:21;6.97;;;3.03;;
27889;SDS011;15238;49.082;9.102;2022-08-14T09:11:23;4.10;;;2.67;;
27889;SDS011;15238;49.082;9.102;2022-08-14T09:13:24;6.07;;;2.90;;
27889;SDS011;15238;49.082;9.102;2022-08-14T09:15:25;3.90;;;3.15;;
27889;SDS011;15238;49.082;9.102;2022-08-14T09:17:26;2.80;;;2.50;;
27889;SDS011;15238;49.082;9.102;2022-08-14T09:19:27;5.40;;;2.58;;
27889;SDS011;15238;49.082;9.102;2022-08-14T09:21:27;4.20;;;2.90;;
27889;SDS011;15238;49.082;9.102;2022-08-14T09:23:29;2.90;;;2.60;;
27889;SDS011;15238;49.082;9.102;2022-08-14T09:25:31;2.80;;;2.60;;
27889;SDS011;15238;49.082;9.102;2022-08-14T09:27:32;4.22;;;2.97;;
27889;SDS011;15238;49.082;9.102;2022-08-14T09:29:33;4.97;;;2.60;;
27889;SDS011;15238;49.082;9.102;2022-08-14T09:31:34;3.90;;;2.50;;
27889;SDS011;15238;49.082;9.102;2022-08-14T09:36:02;3.92;;;2.47;;
27889;SDS011;15238;49.082;9.102;2022-08-14T09:38:23;3.53;;;2.70;;
27889;SDS011;15238;49.082;9.102;2022-08-14T09:40:58;3.85;;;3.15;;
27889;SDS011;15238;49.082;9.102;2022-08-14T09:43:23;2.97;;;2.78;;
27889;SDS011;15238;49.082;9.102;2022-08-14T09:45:38;3.38;;;2.20;;
27889;SDS011;15238;49.082;9.102;2022-08-14T09:47:54;2.85;;;2.40;;
27889;SDS011;15238;49.082;9.102;2022-08-14T09:49:56;2.10;;;2.00;;
27889;SDS011;15238;49.082;9.102;2022-08-14T09:52:03;4.53;;;2.35;;
27889;SDS011;15238;49.082;9.102;2022-08-14T09:54:09;4.85;;;2.35;;
27889;SDS011;15238;49.082;9.102;2022-08-14T09:56:11;5.30;;;2.42;;
27889;SDS011;15238;49.082;9.102;2022-08-14T09:58:17;2.70;;;2.50;;
27889;SDS011;15238;49.082;9.102;2022-08-14T10:00:21;2.70;;;2.50;;
27889;SDS011;15238;49.082;9.102;2022-08-14T10:02:51;4.47;;;2.40;;
27889;SDS011;15238;49.082;9.102;2022-08-14T10:04:59;2.58;;;2.38;;
27889;SDS011;15238;49.082;9.102;2022-08-14T10:07:08;3.92;;;2.70;;
27889;SDS011;15238;49.082;9.102;2022-08-14T10:09:09;3.15;;;2.50;;
27889;SDS011;15238;49.082;9.102;2022-08-14T10:13:25;4.07;;;2.67;;
27889;SDS011;15238;49.082;9.102;2022-08-14T10:15:26;2.55;;;2.35;;
27889;SDS011;15238;49.082;9.102;2022-08-14T10:17:29;2.47;;;2.25;;
27889;SDS011;15238;49.082;9.102;2022-08-14T10:19:30;2.88;;;2.50;;
27889;SDS011;15238;49.082;9.102;2022-08-14T10:21:31;3.50;;;2.53;;
27889;SDS011;15238;49.082;9.102;2022-08-14T10:23:42;8.77;;;2.60;;
27889;SDS011;15238;49.082;9.102;2022-08-14T10:25:47;4.25;;;2.95;;
27889;SDS011;15238;49.082;9.102;2022-08-14T10:27:56;3.10;;;2.53;;
27889;SDS011;15238;49.082;9.102;2022-08-14T10:29:58;3.63;;;2.72;;
27889;SDS011;15238;49.082;9.102;2022-08-14T10:31:59;4.38;;;2.83;;
27889;SDS011;15238;49.082;9.102;2022-08-14T10:34:05;3.22;;;2.50;;
27889;SDS011;15238;49.082;9.102;2022-08-14T10:36:08;5.57;;;2.60;;
27889;SDS011;15238;49.082;9.102;2022-08-14T10:38:09;2.42;;;2.22;;
27889;SDS011;15238;49.082;9.102;2022-08-14T10:40:09;2.55;;;2.35;;
27889;SDS011;15238;49.082;9.102;2022-08-14T10:42:13;2.35;;;2.15;;
27889;SDS011;15238;49.082;9.102;2022-08-14T10:44:15;2.17;;;1.98;;
27889;SDS011;15238;49.082;9.102;2022-08-14T10:46:23;6.45;;;2.00;;
27889;SDS011;15238;49.082;9.102;2022-08-14T10:48:23;3.17;;;2.53;;
27889;SDS011;15238;49.082;9.102;2022-08-14T10:50:31;2.78;;;2.30;;
27889;SDS011;15238;49.082;9.102;2022-08-14T10:52:40;4.32;;;2.50;;
27889;SDS011;15238;49.082;9.102;2022-08-14T10:54:42;7.70;;;2.28;;
27889;SDS011;15238;49.082;9.102;2022-08-14T10:56:44;2.35;;;2.15;;
27889;SDS011;15238;49.082;9.102;2022-08-14T10:58:45;2.38;;;2.17;;
27889;SDS011;15238;49.082;9.102;2022-08-14T11:00:53;2.00;;;1.90;;
27889;SDS011;15238;49.082;9.102;2022-08-14T11:02:59;2.75;;;2.35;;
27889;SDS011;15238;49.082;9.102;2022-08-14T11:05:09;2.50;;;2.30;;
27889;SDS011;15238;49.082;9.102;2022-08-14T11:07:14;2.65;;;2.10;;
27889;SDS011;15238;49.082;9.102;2022-08-14T11:09:15;2.47;;;2.28;;
27889;SDS011;15238;49.082;9.102;2022-08-14T11:11:15;2.47;;;2.28;;
27889;SDS011;15238;49.082;9.102;2022-08-14T11:13:17;2.55;;;2.10;;
27889;SDS011;15238;49.082;9.102;2022-08-14T11:15:21;2.45;;;2.20;;
27889;SDS011;15238;49.082;9.102;2022-08-14T11:17:23;2.38;;;2.10;;
27889;SDS011;15238;49.082;9.102;2022-08-14T11:19:24;5.95;;;2.30;;
27889;SDS011;15238;49.082;9.102;2022-08-14T11:21:26;3.80;;;2.90;;
27889;SDS011;15238;49.082;9.102;2022-08-14T11:23:35;2.50;;;2.30;;
27889;SDS011;15238;49.082;9.102;2022-08-14T11:25:37;2.92;;;2.35;;
27889;SDS011;15238;49.082;9.102;2022-08-14T11:27:45;6.85;;;2.50;;
27889;SDS011;15238;49.082;9.102;2022-08-14T11:29:46;3.53;;;2.65;;
27889;SDS011;15238;49.082;9.102;2022-08-14T11:31:49;3.42;;;2.33;;
27889;SDS011;15238;49.082;9.102;2022-08-14T11:33:51;2.83;;;2.63;;
27889;SDS011;15238;49.082;9.102;2022-08-14T11:35:56;3.88;;;2.45;;
27889;SDS011;15238;49.082;9.102;2022-08-14T11:38:01;4.40;;;2.42;;
27889;SDS011;15238;49.082;9.102;2022-08-14T11:40:02;3.30;;;2.60;;
27889;SDS011;15238;49.082;9.102;2022-08-14T11:42:04;3.38;;;2.33;;
27889;SDS011;15238;49.082;9.102;2022-08-14T11:44:06;3.35;;;2.25;;
27889;SDS011;15238;49.082;9.102;2022-08-14T11:46:06;3.85;;;2.42;;
27889;SDS011;15238;49.082;9.102;2022-08-14T11:48:21;2.30;;;2.15;;
27889;SDS011;15238;49.082;9.102;2022-08-14T11:50:24;4.95;;;2.33;;
27889;SDS011;15238;49.082;9.102;2022-08-14T11:52:34;3.60;;;2.80;;
27889;SDS011;15238;49.082;9.102;2022-08-14T11:54:36;2.50;;;2.30;;
27889;SDS011;15238;49.082;9.102;2022-08-14T11:56:38;2.45;;;2.22;;
27889;SDS011;15238;49.082;9.102;2022-08-14T11:58:42;4.13;;;2.90;;
27889;SDS011;15238;49.082;9.102;2022-08-14T12:02:59;3.80;;;2.50;;
27889;SDS011;15238;49.082;9.102;2022-08-14T12:05:00;3.85;;;2.47;;
27889;SDS011;15238;49.082;9.102;2022-08-14T12:07:01;5.22;;;2.47;;
27889;SDS011;15238;49.082;9.102;2022-08-14T12:09:06;3.33;;;2.40;;
27889;SDS011;15238;49.082;9.102;2022-08-14T12:11:10;4.63;;;2.38;;
27889;SDS011;15238;49.082;9.102;2022-08-14T12:13:13;4.63;;;2.28;;
27889;SDS011;15238;49.082;9.102;2022-08-14T12:15:15;2.60;;;2.22;;
27889;SDS011;15238;49.082;9.102;2022-08-14T12:17:27;3.50;;;2.05;;
27889;SDS011;15238;49.082;9.102;2022-08-14T12:19:49;3.60;;;2.53;;
27889;SDS011;15238;49.082;9.102;2022-08-14T12:21:52;2.75;;;2.50;;
27889;SDS011;15238;49.082;9.102;2022-08-14T12:24:04;2.40;;;2.20;;
27889;SDS011;15238;49.082;9.102;2022-08-14T12:26:07;5.25;;;2.33;;
27889;SDS011;15238;49.082;9.102;2022-08-14T12:28:12;8.50;;;2.35;;
27889;SDS011;15238;49.082;9.102;2022-08-14T12:30:31;2.60;;;2.40;;